sensor_id;sensor_type;location;lat;lon;timestamp;pressure;altitude;pressure_sealevel;temperature;humidity
78170;BME280;67412;49.892;14.490;2023-11-19T00:01:04;97470.16;;;1.00;100.00
78170;BME280;67412;49.892;14.490;2023-11-19T00:03:30;97463.44;;;1.01;100.00
78170;BME280;67412;49.892;14.490;2023-11-19T00:05:56;97455.94;;;1.05;100.00
78170;BME280;67412;49.892;14.490;2023-11-19T00:08:21;97452.59;;;1.05;100.00
78170;BME280;67412;49.892;14.490;2023-11-19T00:10:46;97445.88;;;1.07;100.00
78170;BME280;67412;49.892;14.490;2023-11-19T00:13:12;97424.84;;;1.09;100.00
78170;BME280;67412;49.892;14.490;2023-11-19T00:15:37;97420.66;;;1.10;100.00
78170;BME280;67412;49.892;14.490;2023-11-19T00:18:02;97413.84;;;1.07;100.00
78170;BME280;67412;49.892;14.490;2023-11-19T00:20:30;97405.34;;;1.04;100.00
78170;BME280;67412;49.892;14.490;2023-11-19T00:22:55;97391.03;;;1.06;100.00
78170;BME280;67412;49.892;14.490;2023-11-19T00:25:21;97396.09;;;1.06;100.00
78170;BME280;67412;49.892;14.490;2023-11-19T00:27:50;97384.38;;;1.09;100.00
78170;BME280;67412;49.892;14.490;2023-11-19T00:30:16;97385.91;;;1.03;100.00
78170;BME280;67412;49.892;14.490;2023-11-19T00:32:42;97386.03;;;1.07;100.00
78170;BME280;67412;49.892;14.490;2023-11-19T00:35:08;97391.03;;;1.06;100.00
78170;BME280;67412;49.892;14.490;2023-11-19T00:37:35;97375.06;;;1.07;100.00
78170;BME280;67412;49.892;14.490;2023-11-19T00:40:00;97367.41;;;1.04;100.00
78170;BME280;67412;49.892;14.490;2023-11-19T00:42:26;97366.66;;;1.08;100.00
78170;BME280;67412;49.892;14.490;2023-11-19T00:44:52;97364.13;;;1.08;100.00
78170;BME280;67412;49.892;14.490;2023-11-19T00:47:17;97357.47;;;1.11;100.00
78170;BME280;67412;49.892;14.490;2023-11-19T00:49:48;97361.59;;;1.08;100.00
78170;BME280;67412;49.892;14.490;2023-11-19T00:52:14;97351.53;;;1.11;100.00
78170;BME280;67412;49.892;14.490;2023-11-19T00:54:40;97341.38;;;1.08;100.00
78170;BME280;67412;49.892;14.490;2023-11-19T00:57:05;97331.31;;;1.11;100.00
78170;BME280;67412;49.892;14.490;2023-11-19T00:59:31;97315.22;;;1.07;100.00
78170;BME280;67412;49.892;14.490;2023-11-19T01:01:56;97315.25;;;1.09;100.00
78170;BME280;67412;49.892;14.490;2023-11-19T01:04:21;97315.34;;;1.13;100.00
78170;BME280;67412;49.892;14.490;2023-11-19T01:06:47;97340.56;;;1.09;100.00
78170;BME280;67412;49.892;14.490;2023-11-19T01:09:12;97336.25;;;1.06;100.00
78170;BME280;67412;49.892;14.490;2023-11-19T01:11:38;97326.19;;;1.09;100.00
78170;BME280;67412;49.892;14.490;2023-11-19T01:14:04;97326.31;;;1.14;100.00
78170;BME280;67412;49.892;14.490;2023-11-19T01:16:29;97322.94;;;1.13;100.00
78170;BME280;67412;49.892;14.490;2023-11-19T01:18:55;97321.25;;;1.14;100.00
78170;BME280;67412;49.892;14.490;2023-11-19T01:21:21;97323.78;;;1.14;100.00
78170;BME280;67412;49.892;14.490;2023-11-19T01:23:47;97302.78;;;1.18;100.00
78170;BME280;67412;49.892;14.490;2023-11-19T01:26:13;97296.94;;;1.20;100.00
78170;BME280;67412;49.892;14.490;2023-11-19T01:28:39;97294.41;;;1.19;100.00
78170;BME280;67412;49.892;14.490;2023-11-19T01:31:05;97272.44;;;1.18;100.00
78170;BME280;67412;49.892;14.490;2023-11-19T01:33:30;97266.56;;;1.19;100.00
78170;BME280;67412;49.892;14.490;2023-11-19T01:35:56;97264.78;;;1.15;100.00
78170;BME280;67412;49.892;14.490;2023-11-19T01:38:24;97268.13;;;1.12;100.00
78170;BME280;67412;49.892;14.490;2023-11-19T01:40:49;97250.44;;;1.14;100.00
78170;BME280;67412;49.892;14.490;2023-11-19T01:43:34;97245.38;;;1.14;100.00
78170;BME280;67412;49.892;14.490;2023-11-19T01:46:00;97240.38;;;1.17;100.00
78170;BME280;67412;49.892;14.490;2023-11-19T01:48:27;97236.22;;;1.19;100.00
78170;BME280;67412;49.892;14.490;2023-11-19T01:50:52;97227.00;;;1.22;100.00
78170;BME280;67412;49.892;14.490;2023-11-19T01:53:18;97221.16;;;1.25;100.00
78170;BME280;67412;49.892;14.490;2023-11-19T01:55:46;97213.56;;;1.25;100.00
78170;BME280;67412;49.892;14.490;2023-11-19T01:58:12;97216.94;;;1.25;100.00
78170;BME280;67412;49.892;14.490;2023-11-19T02:00:38;97220.28;;;1.24;100.00
78170;BME280;67412;49.892;14.490;2023-11-19T02:03:05;97232.22;;;1.30;100.00
78170;BME280;67412;49.892;14.490;2023-11-19T02:05:33;97219.59;;;1.31;100.00
78170;BME280;67412;49.892;14.490;2023-11-19T02:07:59;97217.16;;;1.36;100.00
78170;BME280;67412;49.892;14.490;2023-11-19T02:10:24;97221.53;;;1.44;100.00
78170;BME280;67412;49.892;14.490;2023-11-19T02:12:50;97205.44;;;1.41;100.00
78170;BME280;67412;49.892;14.490;2023-11-19T02:15:16;97204.66;;;1.43;100.00
78170;BME280;67412;49.892;14.490;2023-11-19T02:17:44;97195.38;;;1.44;100.00
78170;BME280;67412;49.892;14.490;2023-11-19T02:20:09;97188.69;;;1.46;100.00
78170;BME280;67412;49.892;14.490;2023-11-19T02:22:37;97190.50;;;1.53;100.00
78170;BME280;67412;49.892;14.490;2023-11-19T02:25:17;97177.09;;;1.57;100.00
78170;BME280;67412;49.892;14.490;2023-11-19T02:27:49;97176.94;;;1.50;100.00
78170;BME280;67412;49.892;14.490;2023-11-19T02:30:16;97171.94;;;1.54;100.00
78170;BME280;67412;49.892;14.490;2023-11-19T02:32:42;97168.63;;;1.58;100.00
78170;BME280;67412;49.892;14.490;2023-11-19T02:35:07;97161.84;;;1.56;100.00
78170;BME280;67412;49.892;14.490;2023-11-19T02:37:34;97170.25;;;1.53;100.00
78170;BME280;67412;49.892;14.490;2023-11-19T02:39:59;97161.81;;;1.54;100.00
78170;BME280;67412;49.892;14.490;2023-11-19T02:42:34;97157.66;;;1.56;100.00
78170;BME280;67412;49.892;14.490;2023-11-19T02:45:01;97158.47;;;1.55;100.00
78170;BME280;67412;49.892;14.490;2023-11-19T02:47:27;97150.00;;;1.55;100.00
78170;BME280;67412;49.892;14.490;2023-11-19T02:49:55;97153.41;;;1.55;100.00
78170;BME280;67412;49.892;14.490;2023-11-19T02:52:21;97149.25;;;1.57;100.00
78170;BME280;67412;49.892;14.490;2023-11-19T02:54:46;97152.59;;;1.56;100.00
78170;BME280;67412;49.892;14.490;2023-11-19T02:57:11;97142.41;;;1.55;100.00
78170;BME280;67412;49.892;14.490;2023-11-19T02:59:39;97139.97;;;1.59;100.00
78170;BME280;67412;49.892;14.490;2023-11-19T03:02:06;97139.16;;;1.62;100.00
78170;BME280;67412;49.892;14.490;2023-11-19T03:04:35;97133.31;;;1.64;100.00
78170;BME280;67412;49.892;14.490;2023-11-19T03:07:00;97139.16;;;1.62;100.00
78170;BME280;67412;49.892;14.490;2023-11-19T03:09:25;97130.75;;;1.63;100.00
78170;BME280;67412;49.892;14.490;2023-11-19T03:11:51;97121.56;;;1.69;100.00
78170;BME280;67412;49.892;14.490;2023-11-19T03:14:16;97119.13;;;1.72;100.00
78170;BME280;67412;49.892;14.490;2023-11-19T03:16:45;97118.19;;;1.69;100.00
78170;BME280;67412;49.892;14.490;2023-11-19T03:19:11;97103.91;;;1.71;100.00
78170;BME280;67412;49.892;14.490;2023-11-19T03:21:36;97099.78;;;1.76;100.00
78170;BME280;67412;49.892;14.490;2023-11-19T03:24:02;97097.16;;;1.71;100.00
78170;BME280;67412;49.892;14.490;2023-11-19T03:26:27;97098.06;;;1.76;100.00
78170;BME280;67412;49.892;14.490;2023-11-19T03:28:53;97087.13;;;1.76;100.00
78170;BME280;67412;49.892;14.490;2023-11-19T03:31:19;97081.16;;;1.74;100.00
78170;BME280;67412;49.892;14.490;2023-11-19T03:33:45;97075.28;;;1.75;100.00
78170;BME280;67412;49.892;14.490;2023-11-19T03:36:10;97071.94;;;1.77;100.00
78170;BME280;67412;49.892;14.490;2023-11-19T03:38:36;97064.38;;;1.80;100.00
78170;BME280;67412;49.892;14.490;2023-11-19T03:41:10;97057.66;;;1.82;100.00
78170;BME280;67412;49.892;14.490;2023-11-19T03:43:35;97050.94;;;1.84;100.00
78170;BME280;67412;49.892;14.490;2023-11-19T03:46:00;97039.13;;;1.85;100.00
78170;BME280;67412;49.892;14.490;2023-11-19T03:48:26;97034.88;;;1.82;100.00
78170;BME280;67412;49.892;14.490;2023-11-19T03:50:51;97028.09;;;1.81;100.00
78170;BME280;67412;49.892;14.490;2023-11-19T03:53:16;97030.66;;;1.83;100.00
78170;BME280;67412;49.892;14.490;2023-11-19T03:55:43;97025.59;;;1.84;100.00
78170;BME280;67412;49.892;14.490;2023-11-19T03:58:09;97027.31;;;1.85;100.00
78170;BME280;67412;49.892;14.490;2023-11-19T04:00:34;97025.59;;;1.83;100.00
78170;BME280;67412;49.892;14.490;2023-11-19T04:03:00;97011.19;;;1.80;100.00
78170;BME280;67412;49.892;14.490;2023-11-19T04:05:25;97025.59;;;1.83;100.00
78170;BME280;67412;49.892;14.490;2023-11-19T04:07:51;97029.03;;;1.86;100.00
78170;BME280;67412;49.892;14.490;2023-11-19T04:10:16;97028.22;;;1.89;100.00
78170;BME280;67412;49.892;14.490;2023-11-19T04:12:42;97028.22;;;1.89;100.00
78170;BME280;67412;49.892;14.490;2023-11-19T04:15:08;97018.16;;;1.93;100.00
78170;BME280;67412;49.892;14.490;2023-11-19T04:17:34;97014.81;;;1.96;100.00
78170;BME280;67412;49.892;14.490;2023-11-19T04:19:59;97017.34;;;1.94;100.00
78170;BME280;67412;49.892;14.490;2023-11-19T04:22:25;97001.31;;;1.97;100.00
78170;BME280;67412;49.892;14.490;2023-11-19T04:24:51;96992.88;;;1.97;100.00
78170;BME280;67412;49.892;14.490;2023-11-19T04:27:16;96995.44;;;2.00;100.00
78170;BME280;67412;49.892;14.490;2023-11-19T04:29:42;96984.50;;;2.02;100.00
78170;BME280;67412;49.892;14.490;2023-11-19T04:32:07;96979.41;;;2.01;100.00
78170;BME280;67412;49.892;14.490;2023-11-19T04:34:33;96976.03;;;2.00;100.00
78170;BME280;67412;49.892;14.490;2023-11-19T04:36:58;96966.75;;;2.01;100.00
78170;BME280;67412;49.892;14.490;2023-11-19T04:39:27;96971.00;;;2.02;100.00
78170;BME280;67412;49.892;14.490;2023-11-19T04:41:52;96976.88;;;2.01;100.00
78170;BME280;67412;49.892;14.490;2023-11-19T04:44:18;96961.75;;;2.07;100.00
78170;BME280;67412;49.892;14.490;2023-11-19T04:46:44;96958.38;;;2.05;100.00
78170;BME280;67412;49.892;14.490;2023-11-19T04:49:10;96956.66;;;2.04;100.00
78170;BME280;67412;49.892;14.490;2023-11-19T04:51:42;96950.75;;;2.05;100.00
78170;BME280;67412;49.892;14.490;2023-11-19T04:54:08;96934.78;;;2.09;100.00
78170;BME280;67412;49.892;14.490;2023-11-19T04:56:34;96928.03;;;2.09;100.00
78170;BME280;67412;49.892;14.490;2023-11-19T04:59:01;96928.03;;;2.11;100.00
78170;BME280;67412;49.892;14.490;2023-11-19T05:01:27;96916.16;;;2.07;100.00
78170;BME280;67412;49.892;14.490;2023-11-19T05:03:52;96919.56;;;2.09;100.00
78170;BME280;67412;49.892;14.490;2023-11-19T05:06:18;96911.06;;;2.04;100.00
78170;BME280;67412;49.892;14.490;2023-11-19T05:08:44;96904.34;;;2.07;100.00
78170;BME280;67412;49.892;14.490;2023-11-19T05:11:09;96895.06;;;2.08;100.00
78170;BME280;67412;49.892;14.490;2023-11-19T05:13:37;96884.06;;;2.07;100.00
78170;BME280;67412;49.892;14.490;2023-11-19T05:16:03;96887.47;;;2.06;100.00
78170;BME280;67412;49.892;14.490;2023-11-19T05:18:28;96890.00;;;2.08;100.00
78170;BME280;67412;49.892;14.490;2023-11-19T05:20:54;96882.34;;;2.03;100.00
78170;BME280;67412;49.892;14.490;2023-11-19T05:23:19;96878.16;;;2.05;100.00
78170;BME280;67412;49.892;14.490;2023-11-19T05:25:45;96879.91;;;2.09;100.00
78170;BME280;67412;49.892;14.490;2023-11-19T05:28:10;96877.38;;;2.11;100.00
78170;BME280;67412;49.892;14.490;2023-11-19T05:30:36;96871.50;;;2.15;100.00
78170;BME280;67412;49.892;14.490;2023-11-19T05:33:01;96880.81;;;2.16;100.00
78170;BME280;67412;49.892;14.490;2023-11-19T05:35:27;96878.34;;;2.20;100.00
78170;BME280;67412;49.892;14.490;2023-11-19T05:37:52;96869.03;;;2.22;100.00
78170;BME280;67412;49.892;14.490;2023-11-19T05:40:18;96868.16;;;2.19;100.00
78170;BME280;67412;49.892;14.490;2023-11-19T05:42:45;96858.91;;;2.22;100.00
78170;BME280;67412;49.892;14.490;2023-11-19T05:45:11;96858.94;;;2.24;100.00
78170;BME280;67412;49.892;14.490;2023-11-19T05:47:37;96848.84;;;2.27;100.00
78170;BME280;67412;49.892;14.490;2023-11-19T05:50:02;96852.25;;;2.30;100.00
78170;BME280;67412;49.892;14.490;2023-11-19T05:52:28;96846.34;;;2.31;100.00
78170;BME280;67412;49.892;14.490;2023-11-19T05:54:59;96837.94;;;2.32;100.00
78170;BME280;67412;49.892;14.490;2023-11-19T05:57:24;96822.72;;;2.32;100.00
78170;BME280;67412;49.892;14.490;2023-11-19T05:59:50;96826.94;;;2.32;100.00
78170;BME280;67412;49.892;14.490;2023-11-19T06:02:16;96835.34;;;2.28;100.00
78170;BME280;67412;49.892;14.490;2023-11-19T06:04:41;96842.09;;;2.30;100.00
78170;BME280;67412;49.892;14.490;2023-11-19T06:07:09;96835.38;;;2.31;100.00
78170;BME280;67412;49.892;14.490;2023-11-19T06:09:34;96824.41;;;2.32;100.00
78170;BME280;67412;49.892;14.490;2023-11-19T06:12:00;96824.41;;;2.33;100.00
78170;BME280;67412;49.892;14.490;2023-11-19T06:14:27;96822.72;;;2.32;100.00
78170;BME280;67412;49.892;14.490;2023-11-19T06:16:52;96828.63;;;2.34;100.00
78170;BME280;67412;49.892;14.490;2023-11-19T06:19:18;96823.53;;;2.33;100.00
78170;BME280;67412;49.892;14.490;2023-11-19T06:21:43;96826.13;;;2.37;100.00
78170;BME280;67412;49.892;14.490;2023-11-19T06:24:09;96828.69;;;2.39;100.00
78170;BME280;67412;49.892;14.490;2023-11-19T06:26:34;96830.41;;;2.41;100.00
78170;BME280;67412;49.892;14.490;2023-11-19T06:28:59;96827.81;;;2.40;100.00
78170;BME280;67412;49.892;14.490;2023-11-19T06:31:25;96829.56;;;2.44;100.00
78170;BME280;67412;49.892;14.490;2023-11-19T06:33:50;96829.63;;;2.47;100.00
78170;BME280;67412;49.892;14.490;2023-11-19T06:36:16;96817.84;;;2.54;100.00
78170;BME280;67412;49.892;14.490;2023-11-19T06:38:42;96805.09;;;2.48;100.00
78170;BME280;67412;49.892;14.490;2023-11-19T06:41:08;96811.88;;;2.47;100.00
78170;BME280;67412;49.892;14.490;2023-11-19T06:43:37;96810.19;;;2.49;100.00
78170;BME280;67412;49.892;14.490;2023-11-19T06:46:02;96806.84;;;2.53;100.00
78170;BME280;67412;49.892;14.490;2023-11-19T06:48:30;96806.00;;;2.53;100.00
78170;BME280;67412;49.892;14.490;2023-11-19T06:50:57;96810.22;;;2.54;100.00
78170;BME280;67412;49.892;14.490;2023-11-19T06:53:22;96805.16;;;2.55;100.00
78170;BME280;67412;49.892;14.490;2023-11-19T06:55:47;96795.84;;;2.53;100.00
78170;BME280;67412;49.892;14.490;2023-11-19T06:58:13;96791.66;;;2.55;100.00
78170;BME280;67412;49.892;14.490;2023-11-19T07:00:38;96782.41;;;2.61;100.00
78170;BME280;67412;49.892;14.490;2023-11-19T07:03:03;96792.53;;;2.60;100.00
78170;BME280;67412;49.892;14.490;2023-11-19T07:05:30;96797.59;;;2.60;100.00
78170;BME280;67412;49.892;14.490;2023-11-19T07:07:56;96800.19;;;2.64;100.00
78170;BME280;67412;49.892;14.490;2023-11-19T07:10:21;96806.94;;;2.65;100.00
78170;BME280;67412;49.892;14.490;2023-11-19T07:12:46;96798.53;;;2.69;100.00
78170;BME280;67412;49.892;14.490;2023-11-19T07:15:12;96803.59;;;2.69;100.00
78170;BME280;67412;49.892;14.490;2023-11-19T07:17:38;96802.75;;;2.70;100.00
78170;BME280;67412;49.892;14.490;2023-11-19T07:20:05;96799.38;;;2.70;100.00
78170;BME280;67412;49.892;14.490;2023-11-19T07:22:31;96796.84;;;2.71;100.00
78170;BME280;67412;49.892;14.490;2023-11-19T07:24:57;96805.38;;;2.79;100.00
78170;BME280;67412;49.892;14.490;2023-11-19T07:27:22;96810.47;;;2.82;100.00
78170;BME280;67412;49.892;14.490;2023-11-19T07:29:49;96806.28;;;2.89;100.00
78170;BME280;67412;49.892;14.490;2023-11-19T07:32:14;96803.75;;;2.87;100.00
78170;BME280;67412;49.892;14.490;2023-11-19T07:34:40;96795.28;;;2.87;100.00
78170;BME280;67412;49.892;14.490;2023-11-19T07:37:05;96788.59;;;2.98;100.00
78170;BME280;67412;49.892;14.490;2023-11-19T07:39:30;96797.06;;;2.99;100.00
78170;BME280;67412;49.892;14.490;2023-11-19T07:41:56;96802.97;;;3.01;100.00
78170;BME280;67412;49.892;14.490;2023-11-19T07:44:21;96807.25;;;3.06;100.00
78170;BME280;67412;49.892;14.490;2023-11-19T07:46:47;96802.22;;;3.12;100.00
78170;BME280;67412;49.892;14.490;2023-11-19T07:49:13;96798.91;;;3.22;100.00
78170;BME280;67412;49.892;14.490;2023-11-19T07:51:38;96798.91;;;3.22;100.00
78170;BME280;67412;49.892;14.490;2023-11-19T07:54:04;96801.47;;;3.25;100.00
78170;BME280;67412;49.892;14.490;2023-11-19T07:56:29;96818.41;;;3.29;100.00
78170;BME280;67412;49.892;14.490;2023-11-19T07:58:54;96807.44;;;3.36;100.00
78170;BME280;67412;49.892;14.490;2023-11-19T08:01:20;96799.00;;;3.45;100.00
78170;BME280;67412;49.892;14.490;2023-11-19T08:03:45;96801.59;;;3.51;100.00
78170;BME280;67412;49.892;14.490;2023-11-19T08:06:10;96801.56;;;3.47;100.00
78170;BME280;67412;49.892;14.490;2023-11-19T08:08:36;96788.88;;;3.48;100.00
78170;BME280;67412;49.892;14.490;2023-11-19T08:11:03;96788.91;;;3.54;100.00
78170;BME280;67412;49.892;14.490;2023-11-19T08:13:30;96779.63;;;3.64;100.00
78170;BME280;67412;49.892;14.490;2023-11-19T08:15:58;96782.19;;;3.71;100.00
78170;BME280;67412;49.892;14.490;2023-11-19T08:18:24;96765.31;;;3.84;100.00
78170;BME280;67412;49.892;14.490;2023-11-19T08:20:49;96763.66;;;3.89;100.00
78170;BME280;67412;49.892;14.490;2023-11-19T08:23:18;96766.19;;;3.92;100.00
78170;BME280;67412;49.892;14.490;2023-11-19T08:25:43;96767.03;;;4.02;100.00
78170;BME280;67412;49.892;14.490;2023-11-19T08:28:09;96772.19;;;4.12;100.00
78170;BME280;67412;49.892;14.490;2023-11-19T08:30:35;96770.47;;;4.25;100.00
78170;BME280;67412;49.892;14.490;2023-11-19T08:33:00;96770.50;;;4.26;100.00
78170;BME280;67412;49.892;14.490;2023-11-19T08:35:31;96772.19;;;4.26;100.00
78170;BME280;67412;49.892;14.490;2023-11-19T08:37:56;96766.25;;;4.36;100.00
78170;BME280;67412;49.892;14.490;2023-11-19T08:40:22;96764.59;;;4.41;100.00
78170;BME280;67412;49.892;14.490;2023-11-19T08:42:47;96759.47;;;4.43;100.00
78170;BME280;67412;49.892;14.490;2023-11-19T08:45:13;96770.50;;;4.37;100.00
78170;BME280;67412;49.892;14.490;2023-11-19T08:47:38;96760.34;;;4.42;100.00
78170;BME280;67412;49.892;14.490;2023-11-19T08:50:05;96753.56;;;4.56;100.00
78170;BME280;67412;49.892;14.490;2023-11-19T08:52:31;96754.41;;;4.70;100.00
78170;BME280;67412;49.892;14.490;2023-11-19T08:54:56;96750.16;;;4.79;100.00
78170;BME280;67412;49.892;14.490;2023-11-19T08:57:22;96746.78;;;4.79;100.00
78170;BME280;67412;49.892;14.490;2023-11-19T08:59:47;96752.69;;;4.81;100.00
78170;BME280;67412;49.892;14.490;2023-11-19T09:02:12;96744.19;;;4.88;100.00
78170;BME280;67412;49.892;14.490;2023-11-19T09:04:38;96744.19;;;4.93;100.00
78170;BME280;67412;49.892;14.490;2023-11-19T09:07:03;96751.81;;;4.96;100.00
78170;BME280;67412;49.892;14.490;2023-11-19T09:09:29;96762.84;;;4.96;100.00
78170;BME280;67412;49.892;14.490;2023-11-19T09:11:55;96748.47;;;4.91;100.00
78170;BME280;67412;49.892;14.490;2023-11-19T09:14:20;96754.38;;;4.94;100.00
78170;BME280;67412;49.892;14.490;2023-11-19T09:16:50;96742.50;;;5.02;100.00
78170;BME280;67412;49.892;14.490;2023-11-19T09:19:16;96739.94;;;5.01;100.00
78170;BME280;67412;49.892;14.490;2023-11-19T09:21:42;96740.78;;;5.00;100.00
78170;BME280;67412;49.892;14.490;2023-11-19T09:24:07;96743.34;;;5.00;100.00
78170;BME280;67412;49.892;14.490;2023-11-19T09:26:33;96742.50;;;5.02;100.00
78170;BME280;67412;49.892;14.490;2023-11-19T09:28:58;96727.22;;;5.05;100.00
78170;BME280;67412;49.892;14.490;2023-11-19T09:31:24;96716.16;;;5.20;100.00
78170;BME280;67412;49.892;14.490;2023-11-19T09:33:49;96715.25;;;5.31;100.00
78170;BME280;67412;49.892;14.490;2023-11-19T09:36:15;96715.19;;;5.44;100.00
78170;BME280;67412;49.892;14.490;2023-11-19T09:38:42;96727.94;;;5.50;100.00
78170;BME280;67412;49.892;14.490;2023-11-19T09:41:07;96721.03;;;5.68;100.00
78170;BME280;67412;49.892;14.490;2023-11-19T09:43:38;96729.50;;;5.76;100.00
78170;BME280;67412;49.892;14.490;2023-11-19T09:46:06;96749.84;;;5.82;100.00
78170;BME280;67412;49.892;14.490;2023-11-19T09:48:37;96751.50;;;5.97;100.00
78170;BME280;67412;49.892;14.490;2023-11-19T09:51:03;96758.31;;;5.98;100.00
78170;BME280;67412;49.892;14.490;2023-11-19T09:53:29;96748.09;;;6.00;100.00
78170;BME280;67412;49.892;14.490;2023-11-19T09:55:55;96748.06;;;6.07;100.00
78170;BME280;67412;49.892;14.490;2023-11-19T09:58:21;96758.25;;;6.10;100.00
78170;BME280;67412;49.892;14.490;2023-11-19T10:00:47;96758.25;;;6.10;100.00
78170;BME280;67412;49.892;14.490;2023-11-19T10:03:13;96749.75;;;6.10;100.00
78170;BME280;67412;49.892;14.490;2023-11-19T10:05:39;96753.09;;;6.15;100.00
78170;BME280;67412;49.892;14.490;2023-11-19T10:08:05;96740.28;;;6.24;100.00
78170;BME280;67412;49.892;14.490;2023-11-19T10:10:31;96735.13;;;6.30;100.00
78170;BME280;67412;49.892;14.490;2023-11-19T10:12:56;96731.72;;;6.37;100.00
78170;BME280;67412;49.892;14.490;2023-11-19T10:15:23;96736.78;;;6.40;100.00
78170;BME280;67412;49.892;14.490;2023-11-19T10:17:54;96727.34;;;6.51;100.00
78170;BME280;67412;49.892;14.490;2023-11-19T10:20:20;96727.22;;;6.66;100.00
78170;BME280;67412;49.892;14.490;2023-11-19T10:22:45;96727.16;;;6.74;100.00
78170;BME280;67412;49.892;14.490;2023-11-19T10:25:40;96724.59;;;6.74;100.00
78170;BME280;67412;49.892;14.490;2023-11-19T10:28:06;96726.22;;;6.82;100.00
78170;BME280;67412;49.892;14.490;2023-11-19T10:30:31;96727.00;;;6.91;100.00
78170;BME280;67412;49.892;14.490;2023-11-19T10:33:09;96734.63;;;6.94;100.00
78170;BME280;67412;49.892;14.490;2023-11-19T10:35:37;96722.59;;;7.08;100.00
78170;BME280;67412;49.892;14.490;2023-11-19T10:38:15;96718.16;;;7.22;100.00
78170;BME280;67412;49.892;14.490;2023-11-19T10:40:41;96716.25;;;7.41;100.00
78170;BME280;67412;49.892;14.490;2023-11-19T10:43:07;96712.63;;;7.60;100.00
78170;BME280;67412;49.892;14.490;2023-11-19T10:45:36;96704.66;;;7.81;100.00
78170;BME280;67412;49.892;14.490;2023-11-19T10:48:03;96705.31;;;7.95;100.00
78170;BME280;67412;49.892;14.490;2023-11-19T10:50:38;96707.97;;;7.91;100.00
78170;BME280;67412;49.892;14.490;2023-11-19T10:53:05;96706.91;;;8.02;100.00
78170;BME280;67412;49.892;14.490;2023-11-19T10:55:35;96709.03;;;8.36;100.00
78170;BME280;67412;49.892;14.490;2023-11-19T10:58:02;96718.16;;;8.52;100.00
78170;BME280;67412;49.892;14.490;2023-11-19T11:00:29;96706.81;;;8.66;100.00
78170;BME280;67412;49.892;14.490;2023-11-19T11:03:01;96706.88;;;8.63;100.00
78170;BME280;67412;49.892;14.490;2023-11-19T11:05:29;96697.34;;;8.71;100.00
78170;BME280;67412;49.892;14.490;2023-11-19T11:07:58;96702.22;;;8.87;100.00
78170;BME280;67412;49.892;14.490;2023-11-19T11:10:26;96689.34;;;8.90;100.00
78170;BME280;67412;49.892;14.490;2023-11-19T11:12:52;96705.38;;;9.01;100.00
78170;BME280;67412;49.892;14.490;2023-11-19T11:15:22;96689.84;;;9.08;100.00
78170;BME280;67412;49.892;14.490;2023-11-19T11:17:50;96699.22;;;9.11;100.00
78170;BME280;67412;49.892;14.490;2023-11-19T11:20:18;96697.69;;;9.01;100.00
78170;BME280;67412;49.892;14.490;2023-11-19T11:28:26;96688.81;;;9.18;100.00
78170;BME280;67412;49.892;14.490;2023-11-19T11:31:21;96679.25;;;9.28;100.00
78170;BME280;67412;49.892;14.490;2023-11-19T11:36:39;96671.38;;;9.37;100.00
78170;BME280;67412;49.892;14.490;2023-11-19T11:39:10;96689.34;;;9.34;100.00
78170;BME280;67412;49.892;14.490;2023-11-19T11:41:36;96692.13;;;9.25;100.00
78170;BME280;67412;49.892;14.490;2023-11-19T11:44:01;96702.31;;;9.27;100.00
78170;BME280;67412;49.892;14.490;2023-11-19T11:49:08;96707.38;;;9.31;100.00
78170;BME280;67412;49.892;14.490;2023-11-19T11:54:25;96706.59;;;9.26;100.00
78170;BME280;67412;49.892;14.490;2023-11-19T11:57:20;96715.81;;;9.36;100.00
78170;BME280;67412;49.892;14.490;2023-11-19T11:59:48;96707.00;;;9.49;100.00
78170;BME280;67412;49.892;14.490;2023-11-19T12:02:19;96692.94;;;9.68;100.00
78170;BME280;67412;49.892;14.490;2023-11-19T12:04:47;96708.84;;;9.86;100.00
78170;BME280;67412;49.892;14.490;2023-11-19T12:07:15;96696.81;;;9.88;100.00
78170;BME280;67412;49.892;14.490;2023-11-19T12:09:42;96703.88;;;9.77;100.00
78170;BME280;67412;49.892;14.490;2023-11-19T12:15:03;96699.06;;;9.61;100.00
78170;BME280;67412;49.892;14.490;2023-11-19T12:20:04;96694.06;;;9.55;100.00
78170;BME280;67412;49.892;14.490;2023-11-19T12:22:40;96684.69;;;9.54;100.00
78170;BME280;67412;49.892;14.490;2023-11-19T12:25:08;96682.13;;;9.54;100.00
78170;BME280;67412;49.892;14.490;2023-11-19T12:27:34;96681.22;;;9.57;100.00
78170;BME280;67412;49.892;14.490;2023-11-19T12:30:03;96673.59;;;9.52;100.00
78170;BME280;67412;49.892;14.490;2023-11-19T12:32:50;96679.47;;;9.59;100.00
78170;BME280;67412;49.892;14.490;2023-11-19T12:35:15;96675.22;;;9.58;100.00
78170;BME280;67412;49.892;14.490;2023-11-19T12:37:48;96668.31;;;9.60;100.00
78170;BME280;67412;49.892;14.490;2023-11-19T12:40:22;96671.63;;;9.66;100.00
78170;BME280;67412;49.892;14.490;2023-11-19T12:42:48;96667.97;;;9.77;100.00
78170;BME280;67412;49.892;14.490;2023-11-19T12:45:14;96666.22;;;9.79;100.00
78170;BME280;67412;49.892;14.490;2023-11-19T12:47:41;96673.88;;;9.82;100.00
78170;BME280;67412;49.892;14.490;2023-11-19T12:50:07;96675.50;;;9.84;100.00
78170;BME280;67412;49.892;14.490;2023-11-19T12:52:37;96649.00;;;9.85;100.00
78170;BME280;67412;49.892;14.490;2023-11-19T12:55:04;96653.28;;;9.85;100.00
78170;BME280;67412;49.892;14.490;2023-11-19T12:57:40;96650.72;;;9.83;100.00
78170;BME280;67412;49.892;14.490;2023-11-19T13:00:06;96661.06;;;9.79;100.00
78170;BME280;67412;49.892;14.490;2023-11-19T13:10:28;96654.47;;;9.68;100.00
78170;BME280;67412;49.892;14.490;2023-11-19T13:13:07;96658.75;;;9.68;100.00
78170;BME280;67412;49.892;14.490;2023-11-19T13:15:34;96643.44;;;9.65;100.00